createdAt,value
2022-08-14T00:03:05.546Z,100129.88
2022-08-14T00:08:14.407Z,100130.47
2022-08-14T00:13:18.858Z,100117.06
2022-08-14T00:18:30.956Z,100110.06
2022-08-14T00:23:45.561Z,100114.13
2022-08-14T00:28:55.754Z,100097.13
2022-08-14T00:33:59.067Z,100099.03
2022-08-14T00:39:18.861Z,100098.78
2022-08-14T00:44:26.575Z,100096.50
2022-08-14T00:49:38.047Z,100108.78
2022-08-14T00:54:45.447Z,100091.03
2022-08-14T00:59:47.217Z,100092.78
2022-08-14T01:04:55.027Z,100093.50
2022-08-14T01:09:59.364Z,100088.56
2022-08-14T01:15:02.540Z,100082.38
2022-08-14T01:20:05.075Z,100077.75
2022-08-14T01:25:07.843Z,100059.97
2022-08-14T01:30:09.932Z,100048.25
2022-08-14T01:35:20.710Z,100037.44
2022-08-14T01:40:41.257Z,100034.66
2022-08-14T01:45:49.192Z,100026.13
2022-08-14T01:51:19.178Z,100030.72
2022-08-14T01:56:26.790Z,100004.78
2022-08-14T02:01:32.240Z,100009.19
2022-08-14T02:06:35.509Z,100015.41
2022-08-14T02:11:37.858Z,100007.63
2022-08-14T02:16:50.913Z,100009.94
2022-08-14T02:21:55.186Z,100011.47
2022-08-14T02:28:22.590Z,100001.66
2022-08-14T02:32:36.111Z,100005.19
2022-08-14T02:37:47.082Z,100004.53
2022-08-14T02:42:54.688Z,100007.50
2022-08-14T02:48:00.909Z,100004.53
2022-08-14T02:53:03.578Z,100008.41
2022-08-14T02:58:05.760Z,100008.84
2022-08-14T03:03:08.302Z,99994.84
2022-08-14T03:08:15.740Z,99989.88
2022-08-14T03:13:21.078Z,99988.22
2022-08-14T03:18:31.663Z,99990.19
2022-08-14T03:23:38.150Z,99983.16
2022-08-14T03:28:42.686Z,99976.06
2022-08-14T03:33:44.550Z,99978.72
2022-08-14T03:39:13.005Z,99970.47
2022-08-14T03:45:26.134Z,99960.91
2022-08-14T03:49:32.208Z,99965.31
2022-08-14T03:54:35.593Z,99961.47
2022-08-14T03:59:37.300Z,99960.44
2022-08-14T04:04:39.412Z,99946.34
2022-08-14T04:09:41.009Z,99949.69
2022-08-14T04:14:42.480Z,99951.72
2022-08-14T04:19:47.324Z,99946.81
2022-08-14T04:24:49.728Z,99950.66
2022-08-14T04:29:53.536Z,99947.19
2022-08-14T04:34:56.537Z,99941.94
2022-08-14T04:39:58.133Z,99949.28
2022-08-14T04:45:00.985Z,99944.41
2022-08-14T04:50:05.265Z,99950.53
2022-08-14T04:55:07.525Z,99944.78
2022-08-14T05:00:16.254Z,99953.94
2022-08-14T05:05:19.781Z,99950.13
2022-08-14T05:10:22.076Z,99956.34
2022-08-14T05:15:26.311Z,99957.06
2022-08-14T05:21:04.100Z,99942.09
2022-08-14T05:25:52.161Z,99932.72
2022-08-14T05:30:56.933Z,99933.84
2022-08-14T05:36:00.129Z,99925.06
2022-08-14T05:41:08.246Z,99925.66
2022-08-14T05:46:12.468Z,99920.06
2022-08-14T05:51:17.153Z,99921.94
2022-08-14T05:56:23.910Z,99917.75
2022-08-14T06:01:26.547Z,99913.28
2022-08-14T06:06:38.044Z,99906.72
2022-08-14T06:11:40.114Z,99893.22
2022-08-14T06:16:41.659Z,99892.44
2022-08-14T06:21:43.638Z,99887.94
2022-08-14T06:26:45.082Z,99876.34
2022-08-14T06:32:00.558Z,99873.69
2022-08-14T06:37:17.052Z,99865.50
2022-08-14T06:42:32.610Z,99858.97
2022-08-14T06:47:43.751Z,99850.06
2022-08-14T06:52:50.173Z,99836.25
2022-08-14T06:57:52.206Z,99832.28
2022-08-14T07:02:53.938Z,99826.53
2022-08-14T07:07:55.739Z,99833.53
2022-08-14T07:13:03.676Z,99819.84
2022-08-14T07:18:08.885Z,99813.94
2022-08-14T07:23:20.504Z,99806.94
2022-08-14T07:28:31.468Z,99801.28
2022-08-14T07:33:41.971Z,99784.56
2022-08-14T07:38:45.157Z,99798.91
2022-08-14T07:43:56.106Z,99796.84
2022-08-14T07:48:59.461Z,99802.78
2022-08-14T07:54:00.935Z,99806.75
2022-08-14T07:59:02.515Z,99799.72
2022-08-14T08:04:16.770Z,99793.16
2022-08-14T08:09:32.555Z,99791.38
2022-08-14T08:14:56.948Z,99788.88
2022-08-14T08:19:56.301Z,99789.53
2022-08-14T08:24:57.950Z,99792.72
2022-08-14T08:30:09.962Z,99773.94
2022-08-14T08:35:21.306Z,99764.81
2022-08-14T08:40:31.435Z,99760.03
2022-08-14T08:45:36.118Z,99771.28
2022-08-14T08:55:42.362Z,99756.69
2022-08-14T09:00:54.154Z,99761.78
2022-08-14T09:06:01.780Z,99745.75
2022-08-14T09:11:19.565Z,99733.84
2022-08-14T09:16:24.793Z,99728.69
2022-08-14T09:21:31.434Z,99729.97
2022-08-14T09:26:33.897Z,99726.13
2022-08-14T09:31:42.989Z,99718.94
2022-08-14T09:37:07.113Z,99705.19
2022-08-14T09:42:33.561Z,99688.22
2022-08-14T09:47:51.871Z,99694.09
2022-08-14T09:53:03.943Z,99679.28
2022-08-14T09:58:07.658Z,99670.16
2022-08-14T10:03:09.703Z,99673.53
2022-08-14T10:08:25.596Z,99661.28
2022-08-14T10:13:28.421Z,99666.00
2022-08-14T10:18:44.995Z,99665.03
2022-08-14T10:23:48.457Z,99657.63
2022-08-14T10:29:18.346Z,99664.53
2022-08-14T10:34:19.747Z,99646.00
2022-08-14T10:39:24.034Z,99653.41
2022-08-14T10:44:36.498Z,99645.25
2022-08-14T10:49:42.691Z,99639.47
2022-08-14T10:54:47.381Z,99622.03
2022-08-14T10:59:50.860Z,99600.34
2022-08-14T11:05:04.981Z,99592.53
2022-08-14T11:10:15.714Z,99582.06
2022-08-14T11:15:23.245Z,99587.88
2022-08-14T11:20:27.638Z,99573.72
2022-08-14T11:25:36.927Z,99580.97
2022-08-14T11:30:53.463Z,99584.81
2022-08-14T11:35:59.590Z,99572.47
2022-08-14T11:41:01.393Z,99567.94
2022-08-14T11:46:03.643Z,99558.63
2022-08-14T11:51:13.715Z,99576.19
2022-08-14T11:56:15.301Z,99567.88
2022-08-14T12:01:25.661Z,99546.09
2022-08-14T12:06:29.657Z,99541.75
2022-08-14T12:11:44.252Z,99535.69
2022-08-14T12:17:06.199Z,99537.28
2022-08-14T12:22:11.583Z,99537.19
2022-08-14T12:27:19.331Z,99531.09
2022-08-14T12:32:26.695Z,99525.66
2022-08-14T12:37:30.293Z,99523.16
2022-08-14T12:42:40.713Z,99513.50
2022-08-14T12:47:51.418Z,99500.09
2022-08-14T12:52:56.210Z,99488.50
2022-08-14T12:58:35.232Z,99479.31
2022-08-14T13:03:35.836Z,99463.25
2022-08-14T13:08:39.769Z,99456.38
2022-08-14T13:13:48.171Z,99461.94
2022-08-14T13:18:57.575Z,99447.84
2022-08-14T13:24:03.132Z,99442.34
2022-08-14T13:29:08.542Z,99437.38
2022-08-14T13:34:15.963Z,99440.56
2022-08-14T13:39:22.413Z,99423.44
2022-08-14T13:44:26.989Z,99441.41
2022-08-14T13:49:29.058Z,99419.03
2022-08-14T13:54:33.800Z,99408.22
2022-08-14T13:59:38.108Z,99414.38
2022-08-14T14:04:46.232Z,99406.84
2022-08-14T14:09:54.591Z,99410.69
2022-08-14T14:14:56.460Z,99399.19
2022-08-14T14:19:58.655Z,99400.03
2022-08-14T14:25:01.406Z,99398.56
2022-08-14T14:30:24.489Z,99393.72
2022-08-14T14:35:30.087Z,99396.50
2022-08-14T14:40:52.217Z,99392.34
2022-08-14T14:45:58.765Z,99391.31
2022-08-14T14:51:00.894Z,99383.50
2022-08-14T14:56:50.315Z,99384.31
2022-08-14T15:01:24.698Z,99375.03
2022-08-14T15:06:30.412Z,99375.53
2022-08-14T15:11:35.278Z,99369.31
2022-08-14T15:16:36.785Z,99374.28
2022-08-14T15:21:39.837Z,99370.72
2022-08-14T15:26:43.186Z,99356.31
2022-08-14T15:31:45.945Z,99351.13
2022-08-14T15:36:47.418Z,99355.69
2022-08-14T15:41:49.631Z,99362.13
2022-08-14T15:46:52.871Z,99351.94
2022-08-14T15:51:55.924Z,99353.78
2022-08-14T15:57:05.850Z,99343.63
2022-08-14T16:02:09.878Z,99347.94
2022-08-14T16:07:13.312Z,99344.69
2022-08-14T16:12:16.732Z,99343.03
2022-08-14T16:17:21.053Z,99334.63
2022-08-14T16:22:59.191Z,99338.50
2022-08-14T16:27:44.725Z,99324.97
2022-08-14T16:32:55.411Z,99327.97
2022-08-14T16:37:59.052Z,99328.81
2022-08-14T16:43:20.902Z,99323.13
2022-08-14T16:48:54.659Z,99320.94
2022-08-14T16:53:45.013Z,99315.25
2022-08-14T16:58:48.493Z,99302.22
2022-08-14T17:03:54.131Z,99308.19
2022-08-14T17:08:55.609Z,99296.53
2022-08-14T17:14:01.542Z,99302.25
2022-08-14T17:19:04.821Z,99304.44
2022-08-14T17:24:58.142Z,99301.44
2022-08-14T17:29:33.106Z,99293.28
2022-08-14T17:34:51.770Z,99294.31
2022-08-14T17:40:15.223Z,99290.50
2022-08-14T17:45:42.661Z,99284.25
2022-08-14T17:51:00.315Z,99297.22
2022-08-14T17:56:04.060Z,99294.22
2022-08-14T18:01:06.331Z,99301.50
2022-08-14T18:06:38.600Z,99298.97
2022-08-14T18:11:45.895Z,99299.50
2022-08-14T18:16:48.708Z,99292.66
2022-08-14T18:21:56.837Z,99291.16
2022-08-14T18:27:13.338Z,99301.84
2022-08-14T18:32:31.834Z,99292.81
2022-08-14T18:37:33.513Z,99299.69
2022-08-14T18:42:35.321Z,99298.47
2022-08-14T18:48:06.325Z,99293.72
2022-08-14T18:53:08.884Z,99308.38
2022-08-14T18:58:25.973Z,99310.25
2022-08-14T19:03:33.660Z,99318.47
2022-08-14T19:08:48.636Z,99317.91
2022-08-14T19:13:51.775Z,99314.22
2022-08-14T19:19:00.210Z,99325.88
2022-08-14T19:24:29.320Z,99318.22
2022-08-14T19:29:38.206Z,99323.94
2022-08-14T19:34:52.320Z,99319.53
2022-08-14T19:39:56.110Z,99333.78
2022-08-14T19:44:58.385Z,99329.03
2022-08-14T19:50:24.277Z,99333.97
2022-08-14T20:00:52.148Z,99339.72
2022-08-14T20:05:59.430Z,99334.56
2022-08-14T20:11:20.636Z,99347.06
2022-08-14T20:16:32.707Z,99350.13
2022-08-14T20:21:38.235Z,99351.94
2022-08-14T20:27:20.192Z,99347.72
2022-08-14T20:32:22.956Z,99350.66
2022-08-14T20:37:29.203Z,99351.97
2022-08-14T20:42:34.946Z,99344.56
2022-08-14T20:47:55.013Z,99351.47
2022-08-14T20:53:05.956Z,99343.41
2022-08-14T20:58:38.720Z,99339.56
2022-08-14T21:03:58.211Z,99343.66
2022-08-14T21:09:05.946Z,99338.19
2022-08-14T21:14:24.815Z,99339.09
2022-08-14T21:19:30.217Z,99340.75
2022-08-14T21:24:40.054Z,99339.53
2022-08-14T21:29:55.274Z,99346.22
2022-08-14T21:34:57.616Z,99342.00
2022-08-14T21:39:59.178Z,99340.78
2022-08-14T21:45:01.129Z,99345.94
2022-08-14T21:50:04.265Z,99343.47
2022-08-14T21:55:25.691Z,99343.75
2022-08-14T22:00:39.635Z,99342.00
2022-08-14T22:05:46.441Z,99344.56
2022-08-14T22:10:51.453Z,99344.75
2022-08-14T22:15:59.741Z,99342.88
2022-08-14T22:21:05.593Z,99339.94
2022-08-14T22:26:07.537Z,99332.97
2022-08-14T22:31:22.134Z,99342.50
2022-08-14T22:36:25.039Z,99336.22
2022-08-14T22:41:29.671Z,99342.25
2022-08-14T22:46:35.657Z,99345.84
2022-08-14T22:51:40.847Z,99342.78
2022-08-14T22:56:50.181Z,99342.44
2022-08-14T23:02:05.464Z,99334.09
2022-08-14T23:07:22.352Z,99342.16
2022-08-14T23:12:29.940Z,99334.44
2022-08-14T23:17:39.561Z,99329.66
2022-08-14T23:22:44.611Z,99336.41
2022-08-14T23:28:03.938Z,99332.22
2022-08-14T23:33:06.507Z,99340.28
2022-08-14T23:38:24.696Z,99336.22
2022-08-14T23:43:32.308Z,99344.16
2022-08-14T23:48:35.270Z,99340.22
2022-08-14T23:53:47.822Z,99332.69
2022-08-14T23:58:51.326Z,99326.47
